WEATHER DATA

YESTERDAY
Time Temp. Dewp. Hum. Wind dir Wind speed Wind gust Bar. 1h Prec. 24h Prec.
00:09 19.1 5.9 42 348 0.3 0.6 1017.3 0.0000 0.0000
00:19 18.8 5.6 42 270 0.3 0.6 1017.3 0.0000 0.0000
00:29 18.6 5.8 43 0 0.3 1017.4 0.0000 0.0000
00:39 18.4 5.3 42 0 0.6 1017.5 0.0000 0.0000
00:49 18.3 5.5 43 0 0.6 1017.5 0.0000 0.0000
00:59 18.1 5.3 43 0 0.6 1017.5 0.0000 0.0000
01:09 17.9 5.8 45 333 0.3 0.6 1017.6 0.0000 0.0000
01:20 17.7 5.6 45 18 0.3 0.8 1017.6 0.0000 0.0000
01:30 17.5 5.8 46 45 0.3 0.6 1017.7 0.0000 0.0000
01:39 17.3 5.9 47 0 0.3 1017.7 0.0000 0.0000
01:49 17 5.9 48 0 0.6 1017.9 0.0000 0.0000
02:00 16.9 5.8 48 0 0.6 1017.9 0.0000 0.0000
02:10 16.8 5.4 47 0 0.6 1017.9 0.0000 0.0000
02:20 16.7 5.9 49 0 0.6 1017.9 0.0000 0.0000
02:30 16.5 6.1 50 0 0.3 1017.9 0.0000 0.0000
02:40 16.4 6 50 0 0.6 1018 0.0000 0.0000
02:50 16.2 6.1 51 0 0.6 1018 0.0000 0.0000
03:00 16.1 6 51 0 0.3 1018 0.0000 0.0000
03:11 15.9 5.8 51 0 0.6 1018 0.0000 0.0000
03:21 15.9 6.1 52 0 0.6 1018 0.0000 0.0000
03:30 15.8 6 52 0 0.6 1018 0.0000 0.0000
03:41 15.8 6.3 53 0 0.8 1018 0.0000 0.0000
03:51 15.6 6.1 53 0 0.6 1018.1 0.0000 0.0000
04:01 15.6 6.1 53 0 0.3 1018.2 0.0000 0.0000
04:11 15.5 6 53 0 0.3 1018.2 0.0000 0.0000
04:21 15.4 5.9 53 0 0.3 1018.2 0.0000 0.0000
04:31 15.3 6.1 54 0 0.6 1018.2 0.0000 0.0000
04:41 15.2 6 54 270 0.3 0.8 1018.2 0.0000 0.0000
04:51 15.1 6.1 55 0 0.6 1018.2 0.0000 0.0000
05:02 14.9 6 55 0 0.3 1018.2 0.0000 0.0000
05:12 14.8 6.1 56 0 0.6 1018.2 0.0000 0.0000
05:21 14.6 5.9 56 0 0.6 1018.3 0.0000 0.0000
05:32 14.5 5.8 56 0 0.6 1018.3 0.0000 0.0000
05:42 14.3 5.7 56 0 0.6 1018.3 0.0000 0.0000
05:52 14.3 5.9 57 0 0.3 1018.4 0.0000 0.0000
06:02 14.2 5.8 57 0 0.3 1018.4 0.0000 0.0000
06:13 14.1 5.7 57 0 0.6 1018.4 0.0000 0.0000
06:22 14.1 6 58 0 0.3 1018.4 0.0000 0.0000
06:32 14.1 5.7 57 0 0.3 1018.5 0.0000 0.0000
06:43 14.1 5.7 57 0 0.3 1018.6 0.0000 0.0000
06:53 14.2 5.6 56 0 0.3 1018.6 0.0000 0.0000
07:03 14.2 5.8 57 0 0.3 1018.7 0.0000 0.0000
07:13 14.2 6.1 58 0 0.6 1018.7 0.0000 0.0000
07:23 14.3 5.9 57 0 0.6 1018.8 0.0000 0.0000
07:33 14.3 5.9 57 0 0.3 1018.8 0.0000 0.0000
07:43 14.4 5.7 56 0 0.3 1018.8 0.0000 0.0000
07:53 14.5 6.1 57 0 0.3 1018.9 0.0000 0.0000
08:04 14.6 6.2 57 0 0.6 1018.8 0.0000 0.0000
08:13 14.7 6 56 0 0.6 1018.8 0.0000 0.0000
08:23 14.9 6.2 56 0 0.6 1018.8 0.0000 0.0000
08:34 15.1 6.1 55 0 0.6 1018.8 0.0000 0.0000
08:44 15.3 6.3 55 0 0.3 1018.8 0.0000 0.0000
08:54 15.5 6.2 54 0 0.3 1018.8 0.0000 0.0000
09:04 15.8 6.3 53 0 0.3 1018.8 0.0000 0.0000
09:14 16.1 6.3 52 0 0.6 1018.8 0.0000 0.0000
09:24 16.4 6.2 51 0 0.6 1018.7 0.0000 0.0000
09:34 16.7 5.9 49 0 0.6 1018.6 0.0000 0.0000
09:45 16.9 6.1 49 0 0.6 1018.5 0.0000 0.0000
09:55 17.1 6 48 15 0.3 0.6 1018.5 0.0000 0.0000
10:05 17.3 5.9 47 38 0.3 0.6 1018.4 0.0000 0.0000
10:14 17.6 5.9 46 14 0.3 0.6 1018.3 0.0000 0.0000
10:25 17.8 6 46 14 0.3 0.6 1018.2 0.0000 0.0000
10:35 18 5.9 45 18 0.3 0.6 1018 0.0000 0.0000
10:45 18.3 6.2 45 11 0.3 0.6 1017.9 0.0000 0.0000
10:55 18.6 6.4 45 21 0.3 0.6 1017.7 0.0000 0.0000
11:06 18.9 6.4 44 21 0.3 0.8 1017.6 0.0000 0.0000
11:15 19.2 6.3 43 24 0.3 0.8 1017.6 0.0000 0.0000
11:25 19.6 6 41 0 0.6 1017.4 0.0000 0.0000
11:36 19.9 6.3 41 28 0.3 0.6 1017.2 0.0000 0.0000
11:46 20.2 6.2 40 20 0.3 0.6 1017.1 0.0000 0.0000
11:56 20.5 6.5 40 21 0.3 0.6 1017 0.0000 0.0000
12:06 20.8 6.7 40 29 0.3 0.6 1016.8 0.0000 0.0000
12:16 21.1 6.6 39 29 0.3 0.8 1016.6 0.0000 0.0000
12:26 21.3 6.4 38 25 0.3 0.6 1016.5 0.0000 0.0000
12:36 21.5 6.6 38 28 0.3 0.6 1016.4 0.0000 0.0000
12:47 21.7 6.8 38 0 0.6 1016.2 0.0000 0.0000
12:57 21.9 7 38 38 0.3 0.6 1016 0.0000 0.0000
13:06 22.1 6.7 37 26 0.3 0.6 1015.9 0.0000 0.0000
13:16 22.4 6.6 36 341 0.3 0.6 1015.8 0.0000 0.0000
13:27 22.8 7 36 14 0.3 0.6 1015.5 0.0000 0.0000
13:37 23.2 7.3 36 0 0.6 1015.4 0.0000 0.0000
13:47 23.6 6.8 34 345 0.3 0.6 1015.2 0.0000 0.0000
13:57 24.1 6.8 33 4 0.3 0.8 1015 0.0000 0.0000
14:07 24.4 6.7 32 0 0.3 1.1 1014.8 0.0000 0.0000
14:17 24.8 6.5 31 11 0.3 0.6 1014.6 0.0000 0.0000
14:27 25.3 6 29 0 0.6 1014.5 0.0000 0.0000
14:38 25.7 5.8 28 353 0.3 0.8 1014.3 0.0000 0.0000
14:48 25.9 6 28 0 0.3 1.4 1014.2 0.0000 0.0000
14:58 26.2 5.7 27 341 0.3 0.8 1014 0.0000 0.0000
15:08 26.4 5.9 27 335 0.3 1.1 1013.9 0.0000 0.0000
15:28 26.6 5.5 26 270 0.6 1.7 1013.6 0.0000 0.0000
15:38 26.5 5.5 26 315 0.3 0.8 1013.5 0.0000 0.0000
15:49 26.4 6.4 28 270 0.3 1.1 1013.3 0.0000 0.0000
15:58 26.4 5.9 27 270 0.3 0.8 1013.1 0.0000 0.0000
16:08 26.5 5.5 26 315 0.3 0.8 1013 0.0000 0.0000
16:18 26.5 5.5 26 321 0.3 1.1 1012.9 0.0000 0.0000
16:29 26.5 6 27 309 0.3 1.1 1012.9 0.0000 0.0000
16:39 26.5 5.5 26 270 0.3 1.4 1012.8 0.0000 0.0000
16:49 26.4 5.4 26 326 0.3 0.8 1012.7 0.0000 0.0000
16:59 26.3 5.3 26 303 0.3 1.1 1012.8 0.0000 0.0000
17:09 26.2 5.7 27 330 0.3 0.8 1012.8 0.0000 0.0000
17:19 26 5.6 27 45 0.3 0.8 1012.8 0.0000 0.0000
17:29 26 6.1 28 270 0.3 1.1 1012.9 0.0000 0.0000
17:40 26.2 6.8 29 355 0.3 1.9 1012.9 0.0000 0.0000
17:50 26.1 6.7 29 315 0.3 0.8 1013 0.0000 0.0000
17:59 26.2 6.8 29 303 0.3 0.8 1013 0.0000 0.0000
18:10 26.2 6.8 29 335 0.3 1.1 1013.2 0.0000 0.0000
18:20 26.2 7.3 30 345 0.3 1.1 1013.1 0.0000 0.0000
18:30 26.4 7.9 31 341 0.3 0.6 1013 0.0000 0.0000
18:40 26.4 7.4 30 353 0.3 0.8 1013 0.0000 0.0000
18:50 26.3 7.4 30 355 0.3 1.1 1013 0.0000 0.0000
19:00 26 7.6 31 0 0.3 0.8 1013.1 0.0000 0.0000
19:14 25.9 7.5 31 336 0.3 0.6 1013.2 0.0000 0.0000
19:23 25.8 7.4 31 353 0.3 0.8 1013.5 0.0000 0.0000
19:33 25.4 7.5 32 341 0.3 0.8 1013.6 0.0000 0.0000
19:44 24.9 7.5 33 356 0.3 1.7 1013.8 0.0000 0.0000
19:54 24.5 8.1 35 348 0.3 0.6 1014.1 0.0000 0.0000
20:04 24 7.6 35 305 0.3 1.1 1014.5 0.0000 0.0000
20:14 23.5 8 37 333 0.3 0.6 1014.8 0.0000 0.0000
20:24 23.2 8.1 38 0 0.6 1015.2 0.0000 0.0000
20:34 22.9 8.2 39 0 0.6 1015.6 0.0000 0.0000
20:44 22.6 8.3 40 0 0.6 1015.8 0.0000 0.0000
20:54 22.3 8.8 42 345 0.3 0.8 1015.8 0.0000 0.0000
21:05 21.9 9.1 44 315 0.3 0.8 1016 0.0000 0.0000
21:15 21.6 8.8 44 329 0.3 0.6 1016.1 0.0000 0.0000
21:24 21.3 8.9 45 333 0.3 1.1 1016.2 0.0000 0.0000
21:35 21.1 9 46 345 0.3 0.8 1016.5 0.0000 0.0000
21:45 20.8 9.1 47 329 0.3 0.6 1016.6 0.0000 0.0000
21:55 20.6 8.9 47 324 0.3 1.1 1016.6 0.0000 0.0000
22:05 20.5 8.8 47 18 0.3 0.6 1016.8 0.0000 0.0000
22:15 20.4 8.7 47 14 0.3 0.6 1016.8 0.0000 0.0000
22:25 20.3 8.6 47 351 0.3 0.8 1016.9 0.0000 0.0000
22:35 20.3 8.6 47 18 0.3 0.6 1017 0.0000 0.0000
22:46 20.2 8.5 47 14 0.3 0.6 1017 0.0000 0.0000
22:56 20.2 8.5 47 0 0.3 0.6 1017 0.0000 0.0000
23:06 20.1 8.4 47 345 0.3 0.8 1017 0.0000 0.0000
23:15 20.1 8.4 47 0 0.6 1017.2 0.0000 0.0000
23:26 20 8.4 47 315 0.3 0.8 1017.5 0.0000 0.0000
23:34 19.4 11.2 59 295 0.6 3.6 1018.2 0.3030 0.3030
23:39 18.5 12 66 299 1.9 6.7 1018.5 1.7170 1.7170
23:50 16.8 11.7 72 297 2.8 6.9 1018.8 2.2220 2.2220

DAY STATISTIC

2018-04-23
TEMPERATURE
AVERAGE
19.9
HIGH
26.6
15:28
LOW
14.1
06:13
PRESSURE
AVERAGE
1016.5
HIGH
1018.9
07:53
LOW
1012.7
16:49
DEWPOINT
AVERAGE
6.7
HIGH
12.0
23:39
LOW
5.3
00:39
HUMIDITY
AVERAGE
44
HIGH
72
23:50
LOW
26
15:28
WIND SPEED
AVERAGE
0.2
HIGH
2.8
23:50
WIND GUST
AVERAGE
0.8
HIGH
6.9
23:50
WIND DIRECTION
PREVAILING
N
27.7%
N
27.7
NE
7.8
E
0.0
SE
0.0
S
0.0
SW
0.0
W
5.0
NW
17.0
PRECIPITATION
RAIN HOUR
2.2
RAIN DAY
2.2
TEMPERATURE (°C)
LOW
14.1
HIGH
26.6
AVERAGE
19.9
PRESSURE (hpa)
LOW
1012.7
HIGH
1018.9
AVERAGE
1016.5
DEVICE